createdAt,value
2016-11-09T00:00:11.824Z,-86
2016-11-09T00:01:11.967Z,-87
2016-11-09T00:02:11.831Z,-87
2016-11-09T00:03:11.684Z,-86
2016-11-09T00:04:12.023Z,-87
2016-11-09T00:05:11.832Z,-87
2016-11-09T00:06:11.941Z,-86
2016-11-09T00:07:11.899Z,-86
2016-11-09T00:08:11.766Z,-86
2016-11-09T00:09:11.804Z,-86
2016-11-09T00:10:11.931Z,-87
2016-11-09T00:11:11.693Z,-87
2016-11-09T00:12:11.708Z,-86
2016-11-09T00:13:11.842Z,-86
2016-11-09T00:14:11.857Z,-87
2016-11-09T00:15:11.936Z,-87
2016-11-09T00:16:11.732Z,-87
2016-11-09T00:17:11.714Z,-87
2016-11-09T00:18:11.753Z,-87
2016-11-09T00:19:11.776Z,-86
2016-11-09T00:20:11.977Z,-87
2016-11-09T00:21:11.819Z,-86
2016-11-09T00:22:11.885Z,-88
2016-11-09T00:23:11.792Z,-86
2016-11-09T00:24:11.903Z,-87
2016-11-09T00:25:11.849Z,-87
2016-11-09T00:26:11.896Z,-86
2016-11-09T00:27:11.974Z,-87
2016-11-09T00:28:11.801Z,-87
2016-11-09T00:29:11.739Z,-86
2016-11-09T00:30:11.898Z,-87
2016-11-09T00:31:12.096Z,-87
2016-11-09T00:32:11.903Z,-87
2016-11-09T00:33:11.819Z,-87
2016-11-09T00:34:11.969Z,-87
2016-11-09T00:35:11.762Z,-88
2016-11-09T00:36:11.929Z,-87
2016-11-09T00:37:12.043Z,-86
2016-11-09T00:38:11.909Z,-87
2016-11-09T00:39:11.765Z,-87
2016-11-09T00:40:11.915Z,-86
2016-11-09T00:41:11.881Z,-87
2016-11-09T00:42:11.845Z,-87
2016-11-09T00:43:11.785Z,-86
2016-11-09T00:44:11.999Z,-87
2016-11-09T00:45:11.854Z,-87
2016-11-09T00:46:11.947Z,-86
2016-11-09T00:47:11.887Z,-87
2016-11-09T00:48:11.857Z,-87
2016-11-09T00:49:11.939Z,-87
2016-11-09T00:50:11.937Z,-87
2016-11-09T00:51:12.299Z,-87
2016-11-09T00:52:11.888Z,-87
2016-11-09T00:53:11.878Z,-87
2016-11-09T00:54:11.830Z,-87
2016-11-09T00:55:11.952Z,-87
2016-11-09T00:56:11.969Z,-87
2016-11-09T00:57:11.984Z,-87
2016-11-09T00:58:12.044Z,-87
2016-11-09T00:59:11.910Z,-87
2016-11-09T01:00:11.868Z,-87
2016-11-09T01:01:11.978Z,-87
2016-11-09T01:02:11.795Z,-87
2016-11-09T01:03:11.927Z,-88
2016-11-09T01:04:11.933Z,-87
2016-11-09T01:05:11.990Z,-87
2016-11-09T01:06:11.858Z,-87
2016-11-09T01:07:11.922Z,-87
2016-11-09T01:08:12.389Z,-87
2016-11-09T01:09:12.067Z,-87
2016-11-09T01:10:12.028Z,-87
2016-11-09T01:11:12.026Z,-87
2016-11-09T01:12:11.925Z,-87
2016-11-09T01:13:12.004Z,-87
2016-11-09T01:14:11.998Z,-87
2016-11-09T01:15:11.951Z,-88
2016-11-09T01:16:12.011Z,-88
2016-11-09T01:17:12.035Z,-87
2016-11-09T01:18:12.029Z,-86
2016-11-09T01:19:11.961Z,-87
2016-11-09T01:20:11.946Z,-87
2016-11-09T01:21:11.928Z,-87
2016-11-09T01:22:11.962Z,-87
2016-11-09T01:23:12.101Z,-87
2016-11-09T01:24:12.094Z,-87
2016-11-09T01:25:12.068Z,-87
2016-11-09T01:26:11.998Z,-86
2016-11-09T01:27:12.041Z,-87
2016-11-09T01:28:11.911Z,-87
2016-11-09T01:29:12.061Z,-87
2016-11-09T01:30:12.079Z,-87
2016-11-09T01:31:11.985Z,-87
2016-11-09T01:32:12.102Z,-87
2016-11-09T01:33:12.139Z,-87
2016-11-09T01:34:12.116Z,-87
2016-11-09T01:35:12.013Z,-87
2016-11-09T01:36:12.082Z,-87
2016-11-09T01:37:11.988Z,-87
2016-11-09T01:38:12.161Z,-87
2016-11-09T01:39:12.002Z,-87
2016-11-09T01:40:12.193Z,-87
2016-11-09T01:41:12.081Z,-87
2016-11-09T01:42:12.011Z,-87
2016-11-09T01:43:12.078Z,-87
2016-11-09T01:44:12.007Z,-87
2016-11-09T01:45:12.058Z,-87
2016-11-09T01:46:12.014Z,-88
2016-11-09T01:47:11.952Z,-87
2016-11-09T01:48:11.933Z,-87
2016-11-09T01:49:12.090Z,-87
2016-11-09T01:50:12.135Z,-87
2016-11-09T01:51:12.125Z,-87
2016-11-09T01:52:12.189Z,-87
2016-11-09T01:53:12.102Z,-87
2016-11-09T01:54:12.102Z,-87
2016-11-09T01:55:12.102Z,-87
2016-11-09T01:56:12.230Z,-87
2016-11-09T01:57:12.233Z,-87
2016-11-09T01:58:12.118Z,-88
2016-11-09T01:59:12.056Z,-87
2016-11-09T02:00:12.063Z,-87
2016-11-09T02:01:12.073Z,-87
2016-11-09T02:02:12.137Z,-87
2016-11-09T02:03:12.068Z,-87
2016-11-09T02:04:12.217Z,-87
2016-11-09T02:05:12.153Z,-87
2016-11-09T02:06:12.003Z,-87
2016-11-09T02:07:12.168Z,-87
2016-11-09T02:08:12.091Z,-87
2016-11-09T02:09:12.087Z,-87
2016-11-09T02:10:12.171Z,-87
2016-11-09T02:11:12.076Z,-87
2016-11-09T02:12:12.114Z,-87
2016-11-09T02:13:12.269Z,-87
2016-11-09T02:14:12.163Z,-87
2016-11-09T02:15:12.277Z,-87
2016-11-09T02:16:12.123Z,-87
2016-11-09T02:17:12.143Z,-88
2016-11-09T02:18:12.129Z,-87
2016-11-09T02:19:12.088Z,-87
2016-11-09T02:20:12.186Z,-87
2016-11-09T02:21:12.126Z,-87
2016-11-09T02:22:12.204Z,-87
2016-11-09T02:23:12.215Z,-87
2016-11-09T02:24:12.144Z,-87
2016-11-09T02:25:12.185Z,-87
2016-11-09T02:26:12.209Z,-87
2016-11-09T02:27:12.136Z,-87
2016-11-09T02:28:12.415Z,-87
2016-11-09T02:29:12.224Z,-87
2016-11-09T02:30:12.127Z,-87
2016-11-09T02:31:12.066Z,-87
2016-11-09T02:32:12.122Z,-87
2016-11-09T02:33:12.317Z,-87
2016-11-09T02:34:12.150Z,-87
2016-11-09T02:35:12.075Z,-86
2016-11-09T02:36:12.155Z,-86
2016-11-09T02:37:12.187Z,-87
2016-11-09T02:38:12.254Z,-86
2016-11-09T02:39:12.345Z,-86
2016-11-09T02:40:12.347Z,-86
2016-11-09T02:41:12.245Z,-86
2016-11-09T02:42:12.170Z,-87
2016-11-09T02:43:12.168Z,-87
2016-11-09T02:44:12.399Z,-86
2016-11-09T02:45:12.091Z,-86
2016-11-09T02:46:12.200Z,-87
2016-11-09T02:47:12.267Z,-87
2016-11-09T02:48:12.105Z,-86
2016-11-09T02:49:12.221Z,-87
2016-11-09T02:50:12.231Z,-87
2016-11-09T02:51:12.277Z,-86
2016-11-09T02:52:12.199Z,-87
2016-11-09T02:53:12.267Z,-87
2016-11-09T02:54:12.518Z,-86
2016-11-09T02:55:12.323Z,-87
2016-11-09T02:56:12.363Z,-86
2016-11-09T02:57:12.223Z,-86
2016-11-09T02:58:12.223Z,-86
2016-11-09T02:59:12.301Z,-86
2016-11-09T03:00:12.352Z,-86
2016-11-09T03:01:12.221Z,-87
2016-11-09T03:02:12.149Z,-86
2016-11-09T03:03:12.320Z,-87
2016-11-09T03:04:12.408Z,-86
2016-11-09T03:05:12.322Z,-86
2016-11-09T03:06:12.430Z,-86
2016-11-09T03:07:12.311Z,-87
2016-11-09T03:08:12.382Z,-86
2016-11-09T03:09:12.470Z,-86
2016-11-09T03:10:12.408Z,-86
2016-11-09T03:11:12.348Z,-86
2016-11-09T03:12:12.258Z,-86
2016-11-09T03:13:12.174Z,-86
2016-11-09T03:14:12.331Z,-86
2016-11-09T03:15:12.301Z,-86
2016-11-09T03:16:12.466Z,-85
2016-11-09T03:17:12.305Z,-86
2016-11-09T03:18:12.259Z,-86
2016-11-09T03:19:12.274Z,-86
2016-11-09T03:20:12.392Z,-85
2016-11-09T03:21:12.287Z,-86
2016-11-09T03:22:12.457Z,-86
2016-11-09T03:23:12.423Z,-86
2016-11-09T03:24:12.774Z,-86
2016-11-09T03:25:12.377Z,-86
2016-11-09T03:26:12.291Z,-86
2016-11-09T03:27:12.227Z,-86
2016-11-09T03:28:12.368Z,-86
2016-11-09T03:29:12.469Z,-85
2016-11-09T03:30:12.466Z,-86
2016-11-09T03:31:12.386Z,-85
2016-11-09T03:32:12.437Z,-86
2016-11-09T03:33:12.324Z,-85
2016-11-09T03:34:12.310Z,-86
2016-11-09T03:35:12.397Z,-86
2016-11-09T03:36:12.238Z,-86
2016-11-09T03:37:12.612Z,-86
2016-11-09T03:38:12.313Z,-85
2016-11-09T03:39:12.382Z,-86
2016-11-09T03:40:12.448Z,-86
2016-11-09T03:41:12.320Z,-86
2016-11-09T03:42:12.331Z,-86
2016-11-09T03:43:12.272Z,-85
2016-11-09T03:44:12.249Z,-86
2016-11-09T03:45:12.323Z,-85
2016-11-09T03:46:12.500Z,-86
2016-11-09T03:47:12.435Z,-85
2016-11-09T03:48:12.488Z,-86
2016-11-09T03:49:12.347Z,-86
2016-11-09T03:50:12.491Z,-86
2016-11-09T03:51:12.497Z,-86
2016-11-09T03:52:12.362Z,-86
2016-11-09T03:53:12.362Z,-86
2016-11-09T03:54:12.361Z,-86
2016-11-09T03:55:12.509Z,-86
2016-11-09T03:56:12.375Z,-86
2016-11-09T03:57:12.387Z,-86
2016-11-09T03:58:12.393Z,-86
2016-11-09T03:59:12.458Z,-85
2016-11-09T04:00:12.391Z,-85
2016-11-09T04:01:12.447Z,-86
2016-11-09T04:02:12.482Z,-85
2016-11-09T04:03:12.533Z,-86
2016-11-09T04:04:12.506Z,-85
2016-11-09T04:05:12.520Z,-86
2016-11-09T04:06:12.385Z,-86
2016-11-09T04:07:12.475Z,-85
2016-11-09T04:08:12.492Z,-86
2016-11-09T04:09:12.529Z,-85
2016-11-09T04:10:12.423Z,-86
2016-11-09T04:11:12.356Z,-85
2016-11-09T04:12:12.503Z,-85
2016-11-09T04:13:12.430Z,-85
2016-11-09T04:14:12.504Z,-85
2016-11-09T04:15:12.514Z,-85
2016-11-09T04:16:12.532Z,-85
2016-11-09T04:17:12.506Z,-85
2016-11-09T04:18:12.437Z,-85
2016-11-09T04:19:12.600Z,-86
2016-11-09T04:20:12.645Z,-86
2016-11-09T04:21:12.492Z,-85
2016-11-09T04:22:12.611Z,-86
2016-11-09T04:23:12.458Z,-86
2016-11-09T04:24:12.350Z,-85
2016-11-09T04:25:12.609Z,-85
2016-11-09T04:26:12.360Z,-86
2016-11-09T04:27:12.393Z,-85
2016-11-09T04:28:12.658Z,-86
2016-11-09T04:29:12.467Z,-86
2016-11-09T04:30:12.393Z,-85
2016-11-09T04:31:12.604Z,-86
2016-11-09T04:32:12.568Z,-85
2016-11-09T04:33:12.467Z,-86
2016-11-09T04:34:12.541Z,-85
2016-11-09T04:35:12.550Z,-85
2016-11-09T04:36:12.588Z,-85
2016-11-09T04:37:12.477Z,-86
2016-11-09T04:38:12.626Z,-85
2016-11-09T04:39:12.518Z,-85
2016-11-09T04:40:12.432Z,-85
2016-11-09T04:41:12.434Z,-86
2016-11-09T04:42:12.664Z,-85
2016-11-09T04:43:12.518Z,-85
2016-11-09T04:44:12.576Z,-85
2016-11-09T04:45:12.569Z,-86
2016-11-09T04:46:12.593Z,-86
2016-11-09T04:47:12.594Z,-86
2016-11-09T04:48:12.654Z,-85
2016-11-09T04:49:12.626Z,-86
2016-11-09T04:50:12.705Z,-85
2016-11-09T04:51:12.513Z,-85
2016-11-09T04:52:12.716Z,-85
2016-11-09T04:53:12.523Z,-85
2016-11-09T04:54:12.610Z,-85
2016-11-09T04:55:12.531Z,-85
2016-11-09T04:56:12.565Z,-86
2016-11-09T04:57:12.647Z,-85
2016-11-09T04:58:12.555Z,-85
2016-11-09T04:59:12.615Z,-85
2016-11-09T05:00:12.568Z,-85
2016-11-09T05:01:12.618Z,-85
2016-11-09T05:02:12.570Z,-85
2016-11-09T05:03:12.728Z,-85
2016-11-09T05:04:12.709Z,-85
2016-11-09T05:05:12.638Z,-85
2016-11-09T05:06:12.620Z,-85
2016-11-09T05:07:12.478Z,-85
2016-11-09T05:08:12.663Z,-85
2016-11-09T05:09:12.652Z,-85
2016-11-09T05:10:12.554Z,-84
2016-11-09T05:11:12.597Z,-85
2016-11-09T05:12:12.514Z,-85
2016-11-09T05:13:12.691Z,-85
2016-11-09T05:14:12.602Z,-85
2016-11-09T05:15:12.649Z,-85
2016-11-09T05:16:12.752Z,-85
2016-11-09T05:17:12.664Z,-85
2016-11-09T05:18:12.589Z,-84
2016-11-09T05:19:12.616Z,-85
2016-11-09T05:20:12.502Z,-85
2016-11-09T05:21:12.697Z,-85
2016-11-09T05:22:12.689Z,-85
2016-11-09T05:23:12.680Z,-85
2016-11-09T05:24:12.623Z,-85
2016-11-09T05:25:12.678Z,-85
2016-11-09T05:26:12.594Z,-85
2016-11-09T05:27:12.767Z,-85
2016-11-09T05:28:12.596Z,-85
2016-11-09T05:29:12.711Z,-85
2016-11-09T05:30:12.648Z,-85
2016-11-09T05:31:12.543Z,-85
2016-11-09T05:32:12.551Z,-85
2016-11-09T05:33:12.623Z,-85
2016-11-09T05:34:12.555Z,-85
2016-11-09T05:35:12.728Z,-85
2016-11-09T05:36:12.643Z,-85
2016-11-09T05:37:12.616Z,-85
2016-11-09T05:38:12.732Z,-85
2016-11-09T05:39:12.738Z,-85
2016-11-09T05:40:12.688Z,-85
2016-11-09T05:41:12.569Z,-85
2016-11-09T05:42:12.729Z,-85
2016-11-09T05:43:12.728Z,-85
2016-11-09T05:44:12.810Z,-85
2016-11-09T05:45:12.878Z,-85
2016-11-09T05:46:12.734Z,-85
2016-11-09T05:47:12.655Z,-85
2016-11-09T05:48:12.691Z,-85
2016-11-09T05:49:12.740Z,-85
2016-11-09T05:50:12.591Z,-86
2016-11-09T05:51:12.758Z,-85
2016-11-09T05:52:12.839Z,-85
2016-11-09T05:53:12.751Z,-85
2016-11-09T05:54:12.843Z,-85
2016-11-09T05:55:12.777Z,-85
2016-11-09T05:56:13.113Z,-85
2016-11-09T05:57:12.614Z,-84
2016-11-09T05:58:12.707Z,-85
2016-11-09T05:59:12.889Z,-85
2016-11-09T06:00:12.629Z,-85
2016-11-09T06:01:12.721Z,-85
2016-11-09T06:02:12.638Z,-85
2016-11-09T06:03:12.725Z,-85
2016-11-09T06:04:12.780Z,-86
2016-11-09T06:05:12.740Z,-85
2016-11-09T06:06:12.793Z,-85
2016-11-09T06:07:12.731Z,-85
2016-11-09T06:08:12.740Z,-86
2016-11-09T06:09:12.791Z,-85
2016-11-09T06:10:12.919Z,-85
2016-11-09T06:11:12.661Z,-85
2016-11-09T06:12:12.870Z,-85
2016-11-09T06:13:12.844Z,-85
2016-11-09T06:14:12.839Z,-86
2016-11-09T06:15:12.905Z,-85
2016-11-09T06:16:12.745Z,-85
2016-11-09T06:17:12.977Z,-85
2016-11-09T06:18:12.826Z,-85
2016-11-09T06:19:12.903Z,-86
2016-11-09T06:20:12.822Z,-86
2016-11-09T06:21:12.933Z,-85
2016-11-09T06:22:12.714Z,-86
2016-11-09T06:23:12.777Z,-86
2016-11-09T06:24:12.839Z,-86
2016-11-09T06:25:12.737Z,-85
2016-11-09T06:26:12.950Z,-85
2016-11-09T06:27:12.846Z,-85
2016-11-09T06:28:13.065Z,-85
2016-11-09T06:29:12.794Z,-85
2016-11-09T06:30:12.785Z,-86
2016-11-09T06:31:12.864Z,-85
2016-11-09T06:32:12.704Z,-85
2016-11-09T06:33:12.980Z,-85
2016-11-09T06:34:12.960Z,-85
2016-11-09T06:35:12.879Z,-85
2016-11-09T06:36:12.872Z,-85
2016-11-09T06:37:12.804Z,-85
2016-11-09T06:38:12.901Z,-85
2016-11-09T06:39:12.923Z,-85
2016-11-09T06:40:12.835Z,-85
2016-11-09T06:41:12.882Z,-85
2016-11-09T06:42:12.841Z,-85
2016-11-09T06:43:12.816Z,-85
2016-11-09T06:44:13.243Z,-85
2016-11-09T06:45:12.900Z,-85
2016-11-09T06:46:12.833Z,-86
2016-11-09T06:47:12.887Z,-85
2016-11-09T06:48:12.774Z,-85
2016-11-09T06:49:12.929Z,-85
2016-11-09T06:50:12.909Z,-86
2016-11-09T06:51:12.858Z,-85
2016-11-09T06:52:13.010Z,-86
2016-11-09T06:53:12.875Z,-85
2016-11-09T06:54:12.858Z,-85
2016-11-09T06:55:12.992Z,-85
2016-11-09T06:56:12.949Z,-85
2016-11-09T06:57:12.929Z,-85
2016-11-09T06:58:12.938Z,-85
2016-11-09T06:59:12.870Z,-85
2016-11-09T07:00:13.061Z,-86
2016-11-09T07:01:12.880Z,-86
2016-11-09T07:02:12.914Z,-85
2016-11-09T07:03:12.908Z,-86
2016-11-09T07:04:12.838Z,-85
2016-11-09T07:05:13.055Z,-85
2016-11-09T07:06:13.009Z,-86
2016-11-09T07:07:12.972Z,-86
2016-11-09T07:08:13.010Z,-86
2016-11-09T07:09:12.928Z,-85
2016-11-09T07:10:13.066Z,-86
2016-11-09T07:11:13.010Z,-86
2016-11-09T07:12:12.994Z,-86
2016-11-09T07:13:16.704Z,-86
2016-11-09T07:14:13.005Z,-86
2016-11-09T07:15:12.903Z,-86
2016-11-09T07:16:13.171Z,-86
2016-11-09T07:17:13.463Z,-86
2016-11-09T07:18:12.875Z,-86
2016-11-09T07:19:12.991Z,-86
2016-11-09T07:20:12.880Z,-87
2016-11-09T07:21:12.857Z,-86
2016-11-09T07:22:12.898Z,-86
2016-11-09T07:23:13.091Z,-86
2016-11-09T07:24:12.958Z,-86
2016-11-09T07:25:13.031Z,-86
2016-11-09T07:26:12.874Z,-86
2016-11-09T07:27:13.138Z,-87
2016-11-09T07:28:13.027Z,-86
2016-11-09T07:29:13.014Z,-87
2016-11-09T07:30:13.176Z,-87
2016-11-09T07:31:12.948Z,-87
2016-11-09T07:32:13.159Z,-86
2016-11-09T07:33:13.050Z,-86
2016-11-09T07:34:13.167Z,-86
2016-11-09T07:35:13.045Z,-86
2016-11-09T07:36:12.970Z,-86
2016-11-09T07:37:12.980Z,-86
2016-11-09T07:38:13.049Z,-86
2016-11-09T07:39:13.030Z,-86
2016-11-09T07:40:13.058Z,-86
2016-11-09T07:41:12.962Z,-86
2016-11-09T07:42:13.062Z,-87
2016-11-09T07:43:13.089Z,-86
2016-11-09T07:44:13.106Z,-86
2016-11-09T07:45:13.132Z,-87
2016-11-09T07:46:13.030Z,-87
2016-11-09T07:47:13.079Z,-86
2016-11-09T07:48:13.267Z,-86
2016-11-09T07:49:12.989Z,-86
2016-11-09T07:50:13.065Z,-86
2016-11-09T07:51:13.005Z,-86
2016-11-09T07:52:12.952Z,-86
2016-11-09T07:53:13.093Z,-86
2016-11-09T07:54:12.927Z,-86
2016-11-09T07:55:13.110Z,-86
2016-11-09T07:56:13.119Z,-87
2016-11-09T07:57:13.041Z,-87
2016-11-09T07:58:13.121Z,-87
2016-11-09T07:59:13.213Z,-87
2016-11-09T08:00:13.084Z,-87
2016-11-09T08:01:13.290Z,-86
2016-11-09T08:02:13.110Z,-86
2016-11-09T08:03:13.073Z,-87
2016-11-09T08:04:13.277Z,-87
2016-11-09T08:05:12.999Z,-86
2016-11-09T08:06:13.245Z,-86
2016-11-09T08:07:13.105Z,-87
2016-11-09T08:08:13.185Z,-87
2016-11-09T08:09:12.989Z,-87
2016-11-09T08:10:13.067Z,-87
2016-11-09T08:11:13.155Z,-87
2016-11-09T08:12:13.057Z,-87
2016-11-09T08:13:13.031Z,-87
2016-11-09T08:14:13.188Z,-87
2016-11-09T08:15:13.071Z,-87
2016-11-09T08:16:13.089Z,-87
2016-11-09T08:17:13.125Z,-87
2016-11-09T08:18:13.115Z,-87
2016-11-09T08:19:13.201Z,-87
2016-11-09T08:20:13.198Z,-87
2016-11-09T08:21:13.194Z,-87
2016-11-09T08:22:13.038Z,-87
2016-11-09T08:23:13.147Z,-88
2016-11-09T08:24:13.149Z,-87
2016-11-09T08:25:13.212Z,-88
2016-11-09T08:26:13.182Z,-87
2016-11-09T08:27:13.171Z,-87
2016-11-09T08:28:13.118Z,-87
2016-11-09T08:29:13.235Z,-88
2016-11-09T08:30:13.340Z,-89
2016-11-09T08:31:13.296Z,-88
2016-11-09T08:32:13.234Z,-88
2016-11-09T08:33:13.269Z,-88
2016-11-09T08:34:13.099Z,-88
2016-11-09T08:35:13.170Z,-88
2016-11-09T08:36:13.498Z,-88
2016-11-09T08:37:13.269Z,-87
2016-11-09T08:38:13.188Z,-87
2016-11-09T08:39:13.223Z,-88
2016-11-09T08:40:13.266Z,-89
2016-11-09T08:41:13.167Z,-89
2016-11-09T08:42:13.264Z,-88
2016-11-09T08:43:13.214Z,-88
2016-11-09T08:44:13.133Z,-88
2016-11-09T08:45:13.274Z,-88
2016-11-09T08:46:13.268Z,-88
2016-11-09T08:47:13.177Z,-88
2016-11-09T08:48:13.211Z,-88
2016-11-09T08:49:13.368Z,-87
2016-11-09T08:50:13.265Z,-87
2016-11-09T08:51:13.507Z,-88
2016-11-09T08:52:13.444Z,-88
2016-11-09T08:53:13.187Z,-88
2016-11-09T08:54:13.263Z,-89
2016-11-09T08:55:13.270Z,-88
2016-11-09T08:56:13.263Z,-88
2016-11-09T08:57:13.365Z,-88
2016-11-09T08:58:13.279Z,-88
2016-11-09T08:59:13.191Z,-89
2016-11-09T09:00:13.481Z,-88
2016-11-09T09:01:13.141Z,-88
2016-11-09T09:02:13.429Z,-89
2016-11-09T09:03:13.306Z,-88
2016-11-09T09:04:13.972Z,-88
2016-11-09T09:05:13.307Z,-89
2016-11-09T09:06:13.252Z,-87
2016-11-09T09:07:13.484Z,-88
2016-11-09T09:08:13.505Z,-88
2016-11-09T09:09:13.262Z,-88
2016-11-09T09:10:13.287Z,-88
2016-11-09T09:11:13.581Z,-89
2016-11-09T09:12:14.829Z,-89
2016-11-09T09:13:13.963Z,-88
2016-11-09T09:14:13.427Z,-90
2016-11-09T09:15:13.334Z,-88
2016-11-09T09:16:13.352Z,-88
2016-11-09T09:17:13.399Z,-87
2016-11-09T09:18:13.640Z,-87
2016-11-09T09:19:13.416Z,-88
2016-11-09T09:20:13.256Z,-87
2016-11-09T09:21:13.251Z,-88
2016-11-09T09:22:13.342Z,-88
2016-11-09T09:23:13.519Z,-88
2016-11-09T09:24:13.248Z,-88
2016-11-09T09:25:13.346Z,-88
2016-11-09T09:26:13.186Z,-89
2016-11-09T09:27:13.364Z,-89
2016-11-09T09:28:13.430Z,-88
2016-11-09T09:29:13.205Z,-89
2016-11-09T09:30:13.333Z,-88
2016-11-09T09:31:13.286Z,-89
2016-11-09T09:32:13.283Z,-87
2016-11-09T09:33:13.262Z,-87
2016-11-09T09:34:13.550Z,-87
2016-11-09T09:35:13.445Z,-87
2016-11-09T09:36:13.295Z,-87
2016-11-09T09:37:13.342Z,-88
2016-11-09T09:38:13.273Z,-87
2016-11-09T09:39:13.388Z,-87
2016-11-09T09:40:13.406Z,-88
2016-11-09T09:41:13.755Z,-88
2016-11-09T09:42:13.676Z,-88
2016-11-09T09:43:13.259Z,-87
2016-11-09T09:44:13.373Z,-87
2016-11-09T09:45:13.452Z,-88
2016-11-09T09:46:13.515Z,-88
2016-11-09T09:47:14.398Z,-88
2016-11-09T09:48:13.347Z,-87
2016-11-09T09:49:13.290Z,-88
2016-11-09T09:50:13.515Z,-88
2016-11-09T09:51:13.447Z,-87
2016-11-09T09:52:13.572Z,-87
2016-11-09T09:53:13.672Z,-87
2016-11-09T09:54:13.322Z,-88
2016-11-09T09:55:13.530Z,-88
2016-11-09T09:56:13.438Z,-87
2016-11-09T09:57:13.483Z,-87
2016-11-09T09:58:13.336Z,-88
2016-11-09T09:59:13.485Z,-88
2016-11-09T10:00:13.381Z,-88
2016-11-09T10:01:13.465Z,-87
2016-11-09T10:02:13.393Z,-88
2016-11-09T10:03:13.650Z,-88
2016-11-09T10:04:13.424Z,-88
2016-11-09T10:05:13.496Z,-87
2016-11-09T10:06:13.488Z,-87
2016-11-09T10:07:13.436Z,-87
2016-11-09T10:08:13.371Z,-87
2016-11-09T10:09:13.546Z,-87
2016-11-09T10:10:13.531Z,-88
2016-11-09T10:11:13.521Z,-88
2016-11-09T10:12:13.588Z,-87
2016-11-09T10:13:13.558Z,-87
2016-11-09T10:14:13.595Z,-88
2016-11-09T10:15:13.665Z,-87
2016-11-09T10:16:13.592Z,-88
2016-11-09T10:17:13.377Z,-87
2016-11-09T10:18:13.505Z,-88
2016-11-09T10:19:13.421Z,-87
2016-11-09T10:20:13.429Z,-87
2016-11-09T10:21:13.342Z,-87
2016-11-09T10:22:13.520Z,-86
2016-11-09T10:23:13.489Z,-87
2016-11-09T10:24:14.923Z,-87
2016-11-09T10:25:13.551Z,-88
2016-11-09T10:26:13.579Z,-87
2016-11-09T10:27:13.429Z,-87
2016-11-09T10:28:14.515Z,-88
2016-11-09T10:29:13.432Z,-87
2016-11-09T10:30:13.459Z,-87
2016-11-09T10:31:13.557Z,-86
2016-11-09T10:32:13.616Z,-87
2016-11-09T10:33:14.247Z,-87
2016-11-09T10:34:13.453Z,-87
2016-11-09T10:35:13.527Z,-87
2016-11-09T10:36:13.526Z,-87
2016-11-09T10:37:13.820Z,-86
2016-11-09T10:38:14.569Z,-88
2016-11-09T10:39:13.570Z,-86
2016-11-09T10:40:13.825Z,-87
2016-11-09T10:41:13.524Z,-86
2016-11-09T10:42:16.163Z,-86
2016-11-09T10:43:13.917Z,-86
2016-11-09T10:44:15.090Z,-87
2016-11-09T10:45:13.555Z,-87
2016-11-09T10:46:13.570Z,-86
2016-11-09T10:47:15.180Z,-87
2016-11-09T10:48:13.659Z,-86
2016-11-09T10:49:13.897Z,-87
2016-11-09T10:50:14.353Z,-87
2016-11-09T10:51:13.896Z,-87
2016-11-09T10:52:14.380Z,-88
2016-11-09T10:53:13.887Z,-87
2016-11-09T10:54:13.724Z,-87
2016-11-09T10:55:14.719Z,-86
2016-11-09T10:56:14.754Z,-86
2016-11-09T10:57:13.625Z,-87
2016-11-09T10:58:13.919Z,-87
2016-11-09T10:59:13.758Z,-87
2016-11-09T11:00:15.189Z,-87
2016-11-09T11:01:14.001Z,-87
2016-11-09T11:02:14.399Z,-88
2016-11-09T11:03:14.328Z,-87
2016-11-09T11:04:14.083Z,-88
2016-11-09T11:05:14.066Z,-87
2016-11-09T11:06:13.604Z,-86
2016-11-09T11:07:14.050Z,-86
2016-11-09T11:08:13.658Z,-87
2016-11-09T11:09:13.866Z,-87
2016-11-09T11:10:13.680Z,-88
2016-11-09T11:11:13.667Z,-87
2016-11-09T11:12:13.632Z,-87
2016-11-09T11:13:13.643Z,-86
2016-11-09T11:14:13.581Z,-86
2016-11-09T11:15:16.395Z,-85
2016-11-09T11:16:13.680Z,-86
2016-11-09T11:17:14.304Z,-85
2016-11-09T11:18:13.656Z,-84
2016-11-09T11:19:13.662Z,-86
2016-11-09T11:20:13.740Z,-85
2016-11-09T11:21:13.770Z,-87
2016-11-09T11:22:14.725Z,-86
2016-11-09T11:23:14.907Z,-86
2016-11-09T11:24:13.749Z,-87
2016-11-09T11:25:13.821Z,-86
2016-11-09T11:26:14.383Z,-86
2016-11-09T11:27:13.803Z,-87
2016-11-09T11:28:13.605Z,-86
2016-11-09T11:29:13.709Z,-86
2016-11-09T11:30:13.651Z,-86
2016-11-09T11:31:13.823Z,-86
2016-11-09T11:32:13.620Z,-86
2016-11-09T11:33:13.582Z,-85
2016-11-09T11:34:13.790Z,-85
2016-11-09T11:35:13.758Z,-86
2016-11-09T11:36:13.685Z,-86
2016-11-09T11:37:13.793Z,-86
2016-11-09T11:38:13.542Z,-86
2016-11-09T11:39:13.769Z,-86
2016-11-09T11:40:13.822Z,-86
2016-11-09T11:41:13.920Z,-85
2016-11-09T11:42:13.588Z,-85
2016-11-09T11:43:13.790Z,-85
2016-11-09T11:44:13.660Z,-86
2016-11-09T11:45:13.853Z,-85
2016-11-09T11:46:13.732Z,-85
2016-11-09T11:47:13.888Z,-86
2016-11-09T11:48:13.754Z,-85
2016-11-09T11:49:13.696Z,-85
2016-11-09T11:50:13.774Z,-85
2016-11-09T11:51:13.860Z,-86
2016-11-09T11:52:13.905Z,-86
2016-11-09T11:53:13.680Z,-85
2016-11-09T11:54:13.809Z,-85
2016-11-09T11:55:13.896Z,-84
2016-11-09T11:56:13.687Z,-85
2016-11-09T11:57:13.901Z,-85
2016-11-09T11:58:13.881Z,-85
2016-11-09T11:59:14.636Z,-85
2016-11-09T12:00:13.833Z,-85
2016-11-09T12:01:13.928Z,-84
2016-11-09T12:02:13.823Z,-85
2016-11-09T12:03:14.280Z,-84
2016-11-09T12:04:13.889Z,-85
2016-11-09T12:05:13.808Z,-85
2016-11-09T12:06:13.872Z,-85
2016-11-09T12:07:13.821Z,-85
2016-11-09T12:08:14.052Z,-85
2016-11-09T12:09:14.004Z,-85
2016-11-09T12:10:13.726Z,-85
2016-11-09T12:11:13.826Z,-85
2016-11-09T12:12:13.673Z,-85
2016-11-09T12:13:14.051Z,-84
2016-11-09T12:14:13.786Z,-84
2016-11-09T12:15:13.699Z,-85
2016-11-09T12:16:13.702Z,-84
2016-11-09T12:17:14.028Z,-84
2016-11-09T12:18:14.032Z,-84
2016-11-09T12:19:13.696Z,-85
2016-11-09T12:20:13.755Z,-85
2016-11-09T12:21:13.785Z,-84
2016-11-09T12:22:13.748Z,-84
2016-11-09T12:23:13.986Z,-85
2016-11-09T12:24:13.790Z,-84
2016-11-09T12:25:13.899Z,-84
2016-11-09T12:26:14.008Z,-84
2016-11-09T12:27:13.887Z,-84
2016-11-09T12:28:13.939Z,-84
2016-11-09T12:29:14.197Z,-84
2016-11-09T12:30:13.762Z,-85
2016-11-09T12:31:14.056Z,-84
2016-11-09T12:32:13.876Z,-85
2016-11-09T12:33:13.914Z,-85
2016-11-09T12:34:13.977Z,-84
2016-11-09T12:35:14.011Z,-85
2016-11-09T12:36:13.958Z,-84
2016-11-09T12:37:13.906Z,-85
2016-11-09T12:38:13.874Z,-83
2016-11-09T12:39:13.913Z,-84
2016-11-09T12:40:14.016Z,-84
2016-11-09T12:41:13.877Z,-84
2016-11-09T12:42:13.884Z,-84
2016-11-09T12:43:14.535Z,-84
2016-11-09T12:44:14.012Z,-84
2016-11-09T12:45:13.990Z,-84
2016-11-09T12:46:13.886Z,-85
2016-11-09T12:47:13.990Z,-85
2016-11-09T12:48:13.998Z,-84
2016-11-09T12:49:13.881Z,-85
2016-11-09T12:50:13.877Z,-84
2016-11-09T12:51:14.117Z,-84
2016-11-09T12:52:13.874Z,-84
2016-11-09T12:53:13.989Z,-84
2016-11-09T12:54:14.054Z,-84
2016-11-09T12:55:14.057Z,-84
2016-11-09T12:56:13.928Z,-84
2016-11-09T12:57:13.924Z,-84
2016-11-09T12:58:13.909Z,-84
2016-11-09T12:59:13.847Z,-84
2016-11-09T13:00:13.852Z,-84
2016-11-09T13:01:14.072Z,-84
2016-11-09T13:02:13.800Z,-84
2016-11-09T13:03:13.870Z,-85
2016-11-09T13:04:14.050Z,-84
2016-11-09T13:05:13.789Z,-85
2016-11-09T13:06:14.062Z,-84
2016-11-09T13:07:13.988Z,-84
2016-11-09T13:08:13.935Z,-85
2016-11-09T13:09:13.918Z,-85
2016-11-09T13:10:14.116Z,-84
2016-11-09T13:11:13.818Z,-85
2016-11-09T13:12:13.983Z,-85
2016-11-09T13:13:14.017Z,-84
2016-11-09T13:14:14.000Z,-84
2016-11-09T13:15:13.922Z,-84
2016-11-09T13:16:14.150Z,-84
2016-11-09T13:17:14.113Z,-85
2016-11-09T13:18:13.993Z,-84
2016-11-09T13:19:14.021Z,-84
2016-11-09T13:20:13.957Z,-85
2016-11-09T13:21:14.522Z,-85
2016-11-09T13:22:14.095Z,-84
2016-11-09T13:23:13.970Z,-84
2016-11-09T13:24:14.186Z,-84
2016-11-09T13:25:14.093Z,-85
2016-11-09T13:26:13.920Z,-84
2016-11-09T13:27:14.099Z,-84
2016-11-09T13:28:14.137Z,-84
2016-11-09T13:29:14.014Z,-84
2016-11-09T13:30:13.906Z,-84
2016-11-09T13:31:14.094Z,-84
2016-11-09T13:32:13.943Z,-84
2016-11-09T13:33:14.202Z,-84
2016-11-09T13:34:14.172Z,-84
2016-11-09T13:35:14.222Z,-85
2016-11-09T13:36:14.138Z,-85
2016-11-09T13:37:14.147Z,-85
2016-11-09T13:38:14.078Z,-85
2016-11-09T13:39:14.014Z,-85
2016-11-09T13:40:13.976Z,-85
2016-11-09T13:41:13.937Z,-85
2016-11-09T13:42:13.920Z,-85
2016-11-09T13:43:13.940Z,-84
2016-11-09T13:44:14.158Z,-84
2016-11-09T13:45:14.105Z,-84
2016-11-09T13:46:14.078Z,-84